Time;durP1;ratioP1;P1;durP2;ratioP2;P2;SDS_P1;SDS_P2;PMS_P1;PMS_P2;Temp;Humidity;BMP_temperature;BMP_pressure;BME280_temperature;BME280_humidity;BME280_pressure;Samples;Min_cycle;Max_cycle;Signal;HPM_P1;HPM_P2
2023/11/15 00:02:13;;;;;;;2.20;1.67;;;;;;;8.75;100.00;100110.09;6132205;28;20243;-72
2023/11/15 00:05:35;;;;;;;1.83;1.73;;;;;;;8.75;100.00;100111.91;6117662;28;20231;-71
2023/11/15 00:08:56;;;;;;;2.17;1.97;;;;;;;8.74;100.00;100121.00;6130807;28;20254;-72
2023/11/15 00:12:17;;;;;;;3.07;1.90;;;;;;;8.79;100.00;100127.63;6123014;28;20240;-73
2023/11/15 00:15:38;;;;;;;1.93;1.80;;;;;;;8.77;100.00;100128.75;6123475;28;20242;-72
2023/11/15 00:18:59;;;;;;;1.60;1.50;;;;;;;8.72;100.00;100129.16;6113541;28;20243;-72
2023/11/15 00:22:25;;;;;;;2.57;1.37;;;;;;;8.71;100.00;100134.69;6119898;28;20318;-72
2023/11/15 00:25:46;;;;;;;1.63;1.53;;;;;;;8.74;100.00;100147.88;6119775;28;20243;-73
2023/11/15 00:29:07;;;;;;;1.43;1.13;;;;;;;8.80;100.00;100153.50;6114611;28;20255;-73
2023/11/15 00:32:28;;;;;;;1.33;1.23;;;;;;;8.71;100.00;100156.19;6115820;28;20596;-73
2023/11/15 00:35:49;;;;;;;1.37;1.27;;;;;;;8.65;100.00;100157.63;6118171;28;20239;-71
2023/11/15 00:39:15;;;;;;;1.13;1.03;;;;;;;8.61;100.00;100177.69;6124060;28;20815;-73
2023/11/15 00:42:36;;;;;;;1.70;1.33;;;;;;;8.52;100.00;100175.00;6120734;28;20243;-72
2023/11/15 00:45:57;;;;;;;1.10;1.07;;;;;;;8.35;100.00;100178.34;6111467;28;20231;-72
2023/11/15 00:49:20;;;;;;;1.40;1.30;;;;;;;8.39;100.00;100190.50;6119829;28;20259;-72
2023/11/15 00:52:41;;;;;;;1.33;1.23;;;;;;;8.45;100.00;100195.34;6119661;28;20280;-72
2023/11/15 00:56:04;;;;;;;1.37;1.27;;;;;;;8.47;100.00;100213.00;6120539;28;20246;-72
2023/11/15 00:59:36;;;;;;;2.60;2.27;;;;;;;8.55;100.00;100215.03;6120671;28;20268;-72
2023/11/15 01:02:58;;;;;;;1.07;1.07;;;;;;;8.42;100.00;100212.59;6120897;28;20231;-71
2023/11/15 01:06:19;;;;;;;1.23;1.13;;;;;;;8.49;100.00;100220.94;6126819;28;20684;-72
2023/11/15 01:09:40;;;;;;;1.47;1.37;;;;;;;8.53;100.00;100227.75;6119947;28;20227;-71
2023/11/15 01:13:03;;;;;;;1.77;1.67;;;;;;;8.51;100.00;100235.09;6142376;28;20601;-72
2023/11/15 01:16:24;;;;;;;2.10;2.00;;;;;;;8.42;100.00;100241.28;6120017;28;20231;-72
2023/11/15 01:19:46;;;;;;;2.20;2.00;;;;;;;8.40;100.00;100252.16;6123663;28;20325;-71
2023/11/15 01:23:07;;;;;;;3.33;2.17;;;;;;;8.35;100.00;100266.97;6123043;28;20267;-71
2023/11/15 01:26:28;;;;;;;2.00;1.80;;;;;;;8.42;100.00;100271.69;6116100;28;20234;-71
2023/11/15 01:29:54;;;;;;;5.53;2.37;;;;;;;8.46;100.00;100280.31;6123162;28;20227;-72
2023/11/15 01:33:15;;;;;;;1.73;1.63;;;;;;;8.48;100.00;100289.94;6124917;28;20299;-71
2023/11/15 01:36:36;;;;;;;2.20;2.10;;;;;;;8.49;100.00;100296.16;6131052;28;20246;-72
2023/11/15 01:39:58;;;;;;;2.73;2.43;;;;;;;8.46;100.00;100307.16;6126760;28;20235;-71
2023/11/15 01:43:19;;;;;;;2.43;2.23;;;;;;;8.34;100.00;100308.25;6128121;28;20247;-71
2023/11/15 01:46:42;;;;;;;2.47;2.17;;;;;;;8.39;100.00;100314.91;6126773;28;20235;-72
2023/11/15 01:50:05;;;;;;;3.87;2.30;;;;;;;8.39;100.00;100324.78;6125473;28;20235;-72
2023/11/15 01:53:28;;;;;;;2.00;1.90;;;;;;;8.36;100.00;100327.78;6123369;28;20231;-71
2023/11/15 01:56:49;;;;;;;2.37;2.07;;;;;;;8.42;100.00;100337.97;6123780;28;20223;-72
2023/11/15 02:00:12;;;;;;;3.33;2.90;;;;;;;8.37;100.00;100341.06;6126107;28;20270;-73
2023/11/15 02:03:38;;;;;;;2.57;2.37;;;;;;;8.37;100.00;100350.94;6125639;28;20231;-72
2023/11/15 02:07:00;;;;;;;2.57;2.37;;;;;;;8.28;100.00;100365.19;6122383;28;20239;-72
2023/11/15 02:10:22;;;;;;;3.40;3.20;;;;;;;8.25;100.00;100369.00;6137858;28;20227;-72
2023/11/15 02:13:42;;;;;;;3.50;3.20;;;;;;;8.37;100.00;100375.09;6117905;28;20235;-72
2023/11/15 02:17:05;;;;;;;2.77;2.57;;;;;;;8.39;100.00;100374.00;6129382;28;20610;-71
2023/11/15 02:20:28;;;;;;;3.97;3.67;;;;;;;8.39;100.00;100381.19;6121368;28;20238;-72
2023/11/15 02:23:51;;;;;;;3.40;3.10;;;;;;;8.29;100.00;100374.94;6121691;28;22177;-71
2023/11/15 02:27:11;;;;;;;3.77;3.10;;;;;;;8.31;100.00;100384.56;6114217;28;20236;-71
2023/11/15 02:30:32;;;;;;;3.73;3.43;;;;;;;8.32;100.00;100394.34;6123206;28;20613;-71
2023/11/15 02:33:53;;;;;;;3.53;3.23;;;;;;;8.26;100.00;100396.69;6126558;28;20247;-72
2023/11/15 02:37:14;;;;;;;3.67;3.37;;;;;;;8.31;100.00;100410.56;6128904;28;20589;-72
2023/11/15 02:40:36;;;;;;;3.37;3.07;;;;;;;8.26;100.00;100416.31;6123126;28;20231;-72
2023/11/15 02:43:57;;;;;;;3.63;2.77;;;;;;;8.31;100.00;100418.63;6107168;28;20240;-71
2023/11/15 02:47:19;;;;;;;3.13;2.93;;;;;;;8.26;100.00;100424.38;6124179;28;20858;-72
2023/11/15 02:50:40;;;;;;;3.87;3.57;;;;;;;8.27;100.00;100428.78;6122461;28;20360;-72
2023/11/15 02:54:04;;;;;;;2.83;2.37;;;;;;;8.25;100.00;100440.59;6117878;28;20243;-72
2023/11/15 02:57:26;;;;;;;3.57;3.27;;;;;;;8.26;100.00;100437.81;6121346;28;20223;-72
2023/11/15 03:00:47;;;;;;;3.33;3.03;;;;;;;8.19;100.00;100449.19;6126298;28;20494;-72
2023/11/15 03:04:08;;;;;;;3.33;3.13;;;;;;;8.25;100.00;100454.03;6120933;28;20278;-72
2023/11/15 03:07:29;;;;;;;4.80;4.40;;;;;;;8.23;100.00;100466.72;6104394;28;20309;-72
2023/11/15 03:10:50;;;;;;;3.57;3.27;;;;;;;8.25;100.00;100464.75;6121887;28;20243;-72
2023/11/15 03:14:15;;;;;;;3.77;2.83;;;;;;;8.28;100.00;100467.22;6129782;28;20261;-72
2023/11/15 03:17:38;;;;;;;3.47;3.17;;;;;;;8.24;100.00;100469.28;6130957;28;20231;-72
2023/11/15 03:20:59;;;;;;;3.77;3.20;;;;;;;8.24;100.00;100487.25;6120820;28;20763;-72
2023/11/15 03:24:24;;;;;;;3.20;2.90;;;;;;;8.19;100.00;100490.31;6123421;28;20231;-70
2023/11/15 03:27:45;;;;;;;3.23;3.03;;;;;;;8.20;100.00;100497.38;6136203;28;20633;-72
2023/11/15 03:31:10;;;;;;;3.17;2.87;;;;;;;8.15;100.00;100502.28;6118595;28;20614;-71
2023/11/15 03:34:31;;;;;;;3.10;2.90;;;;;;;8.24;100.00;100506.88;6125443;28;20224;-72
2023/11/15 03:37:55;;;;;;;2.80;2.60;;;;;;;8.24;100.00;100514.91;6119236;28;20786;-71
2023/11/15 03:41:15;;;;;;;3.13;2.83;;;;;;;8.24;100.00;100514.91;6119038;28;20234;-72
2023/11/15 03:44:36;;;;;;;3.40;3.10;;;;;;;8.24;100.00;100522.97;6119389;28;20700;-72
2023/11/15 03:48:02;;;;;;;2.50;2.30;;;;;;;8.19;100.00;100529.72;6119250;28;20254;-72
2023/11/15 03:51:23;;;;;;;2.67;2.47;;;;;;;8.19;100.00;100530.59;6121120;28;20231;-72
2023/11/15 03:54:44;;;;;;;2.50;2.23;;;;;;;8.25;100.00;100534.56;6121843;28;20231;-72
2023/11/15 03:58:05;;;;;;;1.77;1.67;;;;;;;8.19;100.00;100535.97;6120144;28;20235;-71
2023/11/15 04:01:26;;;;;;;3.63;2.03;;;;;;;8.24;100.00;100541.78;6122841;28;20234;-71
2023/11/15 04:04:48;;;;;;;2.87;2.67;;;;;;;8.19;100.00;100540.47;6123298;28;20258;-70
2023/11/15 04:08:09;;;;;;;2.40;2.20;;;;;;;8.19;100.00;100554.75;6121325;28;21091;-72
2023/11/15 04:11:36;;;;;;;1.60;1.50;;;;;;;8.27;100.00;100560.34;6115502;28;20284;-72
2023/11/15 04:14:57;;;;;;;2.00;1.90;;;;;;;8.22;100.00;100565.22;6118661;28;20243;-72
2023/11/15 04:18:20;;;;;;;2.47;2.07;;;;;;;8.25;100.00;100564.13;6124019;28;20301;-71
2023/11/15 04:21:42;;;;;;;3.23;2.10;;;;;;;8.28;100.00;100571.97;6121099;28;20235;-72
2023/11/15 04:25:04;;;;;;;2.43;2.27;;;;;;;8.15;100.00;100582.84;6118746;28;20263;-71
2023/11/15 04:28:25;;;;;;;2.07;1.80;;;;;;;8.26;100.00;100588.16;6123202;28;20316;-72
2023/11/15 04:31:46;;;;;;;2.20;2.07;;;;;;;8.21;100.00;100594.88;6120076;28;20232;-72
2023/11/15 04:35:08;;;;;;;2.10;2.00;;;;;;;8.28;100.00;100591.59;6123163;28;20234;-72
2023/11/15 04:38:30;;;;;;;2.47;2.27;;;;;;;8.36;100.00;100596.31;6122967;28;20235;-71
2023/11/15 04:41:51;;;;;;;1.63;1.53;;;;;;;8.39;100.00;100601.44;6119432;28;20238;-71
2023/11/15 04:45:12;;;;;;;2.10;1.97;;;;;;;8.33;100.00;100604.63;6120879;28;20239;-71
2023/11/15 04:48:33;;;;;;;2.10;1.90;;;;;;;8.31;100.00;100610.13;6122698;28;20606;-71
2023/11/15 04:51:56;;;;;;;1.40;1.30;;;;;;;8.40;100.00;100616.56;6120315;28;20228;-71
2023/11/15 04:55:20;;;;;;;1.70;1.60;;;;;;;8.44;100.00;100626.06;6118609;28;20231;-72
2023/11/15 04:58:40;;;;;;;1.60;1.50;;;;;;;8.34;100.00;100627.84;6124664;28;20247;-71
2023/11/15 05:02:02;;;;;;;1.60;1.50;;;;;;;8.23;100.00;100636.75;6119247;28;20252;-72
2023/11/15 05:05:23;;;;;;;1.70;1.60;;;;;;;8.29;100.00;100638.09;6117948;28;20251;-72
2023/11/15 05:08:44;;;;;;;2.13;2.00;;;;;;;8.34;100.00;100644.81;6130634;28;20239;-70
2023/11/15 05:12:08;;;;;;;4.63;4.17;;;;;;;8.31;100.00;100658.47;6125293;28;20496;-70
2023/11/15 05:15:29;;;;;;;2.90;2.37;;;;;;;8.29;100.00;100659.56;6131323;28;20243;-71
2023/11/15 05:18:50;;;;;;;2.10;2.00;;;;;;;8.24;100.00;100670.66;6131361;28;20262;-71
2023/11/15 05:22:11;;;;;;;1.70;1.60;;;;;;;8.36;100.00;100674.22;6129259;28;20329;-72
2023/11/15 05:25:34;;;;;;;2.13;2.03;;;;;;;8.31;100.00;100668.34;6128614;28;20238;-72
2023/11/15 05:28:57;;;;;;;1.90;1.80;;;;;;;8.28;100.00;100668.63;6125861;28;20239;-70
2023/11/15 05:32:18;;;;;;;2.37;2.10;;;;;;;8.27;100.00;100677.66;6127444;28;20663;-71
2023/11/15 05:35:39;;;;;;;2.13;1.97;;;;;;;8.08;100.00;100681.81;6126788;28;20350;-71
2023/11/15 05:39:00;;;;;;;1.87;1.77;;;;;;;8.00;100.00;100681.59;6122720;28;20621;-71
2023/11/15 05:42:21;;;;;;;1.50;1.40;;;;;;;8.04;100.00;100704.53;6124475;28;20633;-71
2023/11/15 05:45:43;;;;;;;4.60;1.90;;;;;;;8.13;100.00;100708.28;6132035;28;20263;-71
2023/11/15 05:49:05;;;;;;;8.40;7.50;;;;;;;7.98;100.00;100705.03;6116710;28;20590;-72
2023/11/15 05:52:26;;;;;;;2.93;2.73;;;;;;;7.93;100.00;100709.03;6127842;28;20235;-72
2023/11/15 05:55:46;;;;;;;2.93;2.73;;;;;;;7.89;100.00;100716.50;6125614;28;20235;-72
2023/11/15 05:59:07;;;;;;;2.70;1.93;;;;;;;7.88;100.00;100730.91;6120158;28;20530;-71
2023/11/15 06:02:29;;;;;;;2.47;2.27;;;;;;;7.84;100.00;100725.91;6120873;28;20238;-72
2023/11/15 06:05:50;;;;;;;2.03;1.83;;;;;;;7.83;100.00;100732.22;6124980;28;20255;-72
2023/11/15 06:09:14;;;;;;;2.17;2.07;;;;;;;7.85;100.00;100738.31;6124967;28;20262;-71
2023/11/15 06:12:35;;;;;;;2.83;2.10;;;;;;;7.85;100.00;100746.38;6122855;28;20239;-70
2023/11/15 06:15:56;;;;;;;1.60;1.50;;;;;;;7.79;100.00;100749.53;6123102;28;20318;-71
2023/11/15 06:19:22;;;;;;;3.30;2.40;;;;;;;7.80;100.00;100756.63;6120322;28;20235;-72
2023/11/15 06:22:43;;;;;;;2.10;2.00;;;;;;;7.80;100.00;100754.78;6124721;28;20600;-71
2023/11/15 06:26:04;;;;;;;2.80;2.60;;;;;;;7.85;100.00;100773.22;6125080;28;20624;-72
2023/11/15 06:29:25;;;;;;;1.97;1.83;;;;;;;7.85;100.00;100770.53;6122896;28;20505;-75
2023/11/15 06:32:46;;;;;;;2.43;2.23;;;;;;;8.09;100.00;100779.31;6120086;28;20326;-71
2023/11/15 06:36:09;;;;;;;1.67;1.57;;;;;;;7.93;100.00;100782.38;6114102;28;20231;-70
2023/11/15 06:39:32;;;;;;;2.70;2.50;;;;;;;7.89;100.00;100799.69;6131386;28;20231;-70
2023/11/15 06:42:53;;;;;;;2.17;1.97;;;;;;;7.92;100.00;100798.59;6118553;28;20239;-69
2023/11/15 06:46:17;;;;;;;2.53;2.33;;;;;;;7.91;100.00;100805.78;6122263;28;20235;-69
2023/11/15 06:49:41;;;;;;;1.93;1.83;;;;;;;7.90;100.00;100806.78;6109915;28;20244;-69
2023/11/15 06:53:03;;;;;;;2.00;1.80;;;;;;;7.99;100.00;100821.28;6120225;28;20234;-73
2023/11/15 06:56:24;;;;;;;2.50;1.90;;;;;;;7.95;100.00;100839.47;6129872;28;20239;-74
2023/11/15 06:59:45;;;;;;;3.57;2.17;;;;;;;7.90;100.00;100841.66;6118986;28;20264;-70
2023/11/15 07:03:07;;;;;;;2.37;2.17;;;;;;;7.90;100.00;100857.78;6121834;28;20310;-69
2023/11/15 07:06:29;;;;;;;1.77;1.67;;;;;;;7.91;100.00;100850.56;6131152;28;20724;-70
2023/11/15 07:09:52;;;;;;;2.07;1.87;;;;;;;7.86;100.00;100852.75;6116790;28;20480;-70
2023/11/15 07:13:13;;;;;;;2.73;2.53;;;;;;;8.36;100.00;100859.53;6124226;28;20239;-71
2023/11/15 07:16:34;;;;;;;1.93;1.83;;;;;;;8.00;100.00;100869.50;6116274;28;20227;-71
2023/11/15 07:19:55;;;;;;;2.60;2.33;;;;;;;7.95;100.00;100873.50;6128061;28;20838;-71
2023/11/15 07:23:16;;;;;;;2.77;1.83;;;;;;;7.88;100.00;100870.47;6126102;28;20239;-72
2023/11/15 07:26:38;;;;;;;1.70;1.60;;;;;;;7.93;100.00;100876.31;6126112;28;20239;-73
2023/11/15 07:30:00;;;;;;;2.40;2.03;;;;;;;7.94;100.00;100882.53;6130264;28;20231;-71
2023/11/15 07:33:21;;;;;;;1.53;1.43;;;;;;;8.15;100.00;100893.41;6124041;28;20350;-73
2023/11/15 07:36:42;;;;;;;2.37;1.87;;;;;;;8.23;100.00;100889.16;6124202;28;20267;-72
2023/11/15 07:40:05;;;;;;;3.57;2.17;;;;;;;8.28;100.00;100888.84;6125146;28;20232;-70
2023/11/15 07:43:28;;;;;;;2.53;2.33;;;;;;;8.25;100.00;100907.81;6122080;28;20243;-71
2023/11/15 07:46:50;;;;;;;3.00;2.60;;;;;;;8.16;100.00;100908.53;6120099;28;20672;-72
2023/11/15 07:50:11;;;;;;;3.77;3.37;;;;;;;8.25;100.00;100914.09;6123741;28;20240;-70
2023/11/15 07:53:33;;;;;;;2.83;2.27;;;;;;;8.25;100.00;100919.47;6118929;28;20235;-75
2023/11/15 07:56:55;;;;;;;2.37;2.17;;;;;;;8.28;100.00;100919.22;6122989;28;20231;-74
2023/11/15 08:00:22;;;;;;;5.30;4.07;;;;;;;8.21;100.00;100934.06;6122739;28;20239;-73
2023/11/15 08:03:43;;;;;;;6.27;3.43;;;;;;;8.30;100.00;100929.84;6120341;28;20505;-71
2023/11/15 08:07:05;;;;;;;3.53;3.23;;;;;;;8.35;100.00;100935.69;6119211;28;20330;-72
2023/11/15 08:10:27;;;;;;;3.37;3.07;;;;;;;8.24;100.00;100931.13;6124488;28;20239;-71
2023/11/15 08:13:48;;;;;;;2.83;2.63;;;;;;;8.60;100.00;100938.16;6122976;28;20230;-73
2023/11/15 08:17:11;;;;;;;2.40;2.20;;;;;;;8.77;100.00;100943.03;6121455;28;20231;-71
2023/11/15 08:20:31;;;;;;;2.60;2.40;;;;;;;8.89;100.00;100941.22;6119656;28;20267;-69
2023/11/15 08:23:52;;;;;;;5.13;2.77;;;;;;;9.14;100.00;100947.16;6120801;28;20330;-70
2023/11/15 08:27:13;;;;;;;3.83;2.87;;;;;;;13.31;100.00;100938.66;6117037;28;20608;-69
2023/11/15 08:30:34;;;;;;;2.63;2.47;;;;;;;12.89;100.00;100946.44;6125347;28;20240;-70
2023/11/15 08:33:57;;;;;;;3.03;2.83;;;;;;;11.03;100.00;100963.13;6130474;28;20231;-72
2023/11/15 08:37:17;;;;;;;3.37;2.90;;;;;;;9.92;100.00;100968.41;6131631;28;20236;-71
2023/11/15 08:40:38;;;;;;;2.50;2.30;;;;;;;10.43;100.00;100970.22;6125039;28;20550;-75
2023/11/15 08:43:59;;;;;;;3.03;2.83;;;;;;;9.90;100.00;100979.31;6132170;28;20243;-71
2023/11/15 08:47:21;;;;;;;3.03;2.60;;;;;;;9.86;100.00;100980.56;6128941;28;20525;-73
2023/11/15 08:50:43;;;;;;;2.63;2.43;;;;;;;9.72;100.00;100983.53;6131733;28;20250;-72
2023/11/15 08:54:07;;;;;;;2.47;2.23;;;;;;;9.58;100.00;100982.00;6128821;28;20628;-75
2023/11/15 08:57:28;;;;;;;2.33;1.63;;;;;;;13.85;100.00;100975.66;6128781;28;20227;-72
2023/11/15 09:00:50;;;;;;;3.07;2.37;;;;;;;17.09;100.00;100970.09;6130241;28;20235;-72
2023/11/15 09:04:12;;;;;;;1.90;1.80;;;;;;;18.05;88.75;100967.88;6129569;28;21085;-70
2023/11/15 09:07:41;;;;;;;1.67;1.58;;;;;;;19.30;79.71;100974.31;6126086;28;20243;-76
2023/11/15 09:11:02;;;;;;;2.15;2.05;;;;;;;20.60;69.38;100974.94;6122513;28;20242;-77
2023/11/15 09:14:24;;;;;;;1.50;1.40;;;;;;;20.77;65.90;100982.88;6128955;28;20560;-76
2023/11/15 09:17:46;;;;;;;2.97;2.03;;;;;;;21.96;60.02;100972.34;6123267;28;20235;-73
2023/11/15 09:21:07;;;;;;;3.42;1.77;;;;;;;22.84;57.57;100981.06;6131460;28;20239;-73
2023/11/15 09:24:29;;;;;;;1.08;1.08;;;;;;;22.01;56.83;100978.88;6142330;28;20231;-73
2023/11/15 09:27:52;;;;;;;2.15;1.73;;;;;;;22.34;53.45;100984.44;6130510;28;20314;-73
2023/11/15 09:31:13;;;;;;;1.73;1.60;;;;;;;22.28;52.62;100990.75;6132038;28;20663;-72
2023/11/15 09:34:38;;;;;;;1.92;1.83;;;;;;;23.35;46.79;100991.38;6134237;28;20633;-73
2023/11/15 09:37:59;;;;;;;2.17;1.45;;;;;;;23.55;43.61;101005.94;6134877;28;20227;-73
2023/11/15 09:41:22;;;;;;;1.60;1.48;;;;;;;23.99;42.05;101005.09;6135920;28;20667;-73
2023/11/15 09:44:44;;;;;;;2.13;1.60;;;;;;;20.64;49.05;101011.88;6132801;28;20243;-73
2023/11/15 09:48:08;;;;;;;2.03;1.92;;;;;;;21.32;48.71;101012.97;6139218;28;20231;-74
2023/11/15 09:51:32;;;;;;;1.75;1.65;;;;;;;23.44;42.41;101015.69;6136784;28;20326;-72
2023/11/15 09:54:55;;;;;;;1.50;1.40;;;;;;;22.64;44.05;101007.72;6138237;28;20227;-73
2023/11/15 09:58:18;;;;;;;0.95;0.95;;;;;;;24.08;40.27;101001.00;6138054;28;20227;-73
2023/11/15 10:01:44;;;;;;;1.63;1.52;;;;;;;24.91;38.70;101010.81;6137491;28;20242;-74
2023/11/15 10:05:18;;;;;;;1.40;1.30;;;;;;;24.21;39.02;101010.06;6142980;28;20314;-73
2023/11/15 10:08:53;;;;;;;1.40;1.30;;;;;;;22.37;41.87;101024.38;6138674;28;20222;-73
2023/11/15 10:12:14;;;;;;;1.52;1.38;;;;;;;19.05;49.51;101022.97;6139880;28;20227;-74
2023/11/15 10:15:37;;;;;;;1.10;1.00;;;;;;;20.69;42.54;101020.31;6135027;28;20250;-73
2023/11/15 10:19:00;;;;;;;1.58;1.27;;;;;;;19.58;47.79;101037.41;6142534;28;20622;-74
2023/11/15 10:22:22;;;;;;;1.60;1.50;;;;;;;20.82;44.46;101029.72;6136378;28;20231;-73
2023/11/15 10:25:52;;;;;;;1.88;1.23;;;;;;;19.22;47.78;101033.72;6135286;28;20234;-73
2023/11/15 10:29:13;;;;;;;2.47;1.15;;;;;;;20.75;45.27;101032.41;6131810;28;20238;-72
2023/11/15 10:32:37;;;;;;;3.40;2.60;;;;;;;18.39;50.57;101031.09;6138190;28;20254;-73
2023/11/15 10:36:15;;;;;;;2.65;2.33;;;;;;;19.28;50.72;101033.81;6137085;28;20263;-72
2023/11/15 10:39:40;;;;;;;1.42;1.33;;;;;;;20.07;46.09;101029.38;6134218;28;20239;-73
2023/11/15 10:43:02;;;;;;;2.05;1.85;;;;;;;17.51;53.04;101035.19;6138651;28;20560;-73
2023/11/15 10:46:26;;;;;;;1.58;1.30;;;;;;;13.36;73.36;101042.81;6135033;28;20235;-72
2023/11/15 10:49:53;;;;;;;1.75;1.65;;;;;;;14.98;73.09;101045.22;6137069;28;20837;-72
2023/11/15 10:53:17;;;;;;;1.48;1.38;;;;;;;19.66;48.01;101035.44;6140018;28;20231;-72
2023/11/15 10:56:39;;;;;;;1.65;1.30;;;;;;;17.00;54.83;101050.13;6132511;28;20235;-73
2023/11/15 11:00:15;;;;;;;1.45;1.35;;;;;;;17.49;53.62;101056.31;6126228;28;20599;-72
2023/11/15 11:03:39;;;;;;;5.50;1.40;;;;;;;15.48;59.56;101050.81;6132152;28;20231;-72
2023/11/15 11:07:07;;;;;;;1.70;1.17;;;;;;;15.13;63.66;101054.47;6135638;28;20239;-73
2023/11/15 11:10:37;;;;;;;1.08;1.00;;;;;;;14.16;69.85;101053.69;6131661;28;20231;-69
2023/11/15 11:14:20;;;;;;;1.48;1.38;;;;;;;13.50;75.83;101061.28;6131891;28;20334;-70
2023/11/15 11:17:45;;;;;;;3.60;1.60;;;;;;;12.87;83.74;101062.03;6133386;28;20604;-74
2023/11/15 11:21:08;;;;;;;2.17;1.97;;;;;;;12.23;90.24;101066.41;6129073;28;20803;-72
2023/11/15 11:24:32;;;;;;;2.97;2.30;;;;;;;12.36;90.02;101069.69;6130450;28;20374;-74
2023/11/15 11:27:56;;;;;;;2.07;1.80;;;;;;;11.82;95.17;101070.22;6128020;28;20318;-70
2023/11/15 11:31:18;;;;;;;1.90;1.77;;;;;;;12.43;93.38;101065.41;6119824;28;20238;-73
2023/11/15 11:35:04;;;;;;;1.93;1.83;;;;;;;13.70;87.69;101067.44;6131738;28;20314;-73
2023/11/15 11:38:50;;;;;;;1.50;1.40;;;;;;;17.39;65.91;101048.34;6129876;28;20237;-72
2023/11/15 11:42:25;;;;;;;1.70;1.45;;;;;;;20.05;50.54;101056.13;6123310;28;20227;-71
2023/11/15 11:45:50;;;;;;;1.15;1.15;;;;;;;18.24;50.68;101055.59;6131399;28;20226;-76
2023/11/15 11:49:11;;;;;;;2.50;1.02;;;;;;;20.51;47.38;101046.50;6133905;28;20228;-74
2023/11/15 11:52:32;;;;;;;1.40;1.30;;;;;;;19.82;46.02;101048.03;6129998;28;20231;-72
2023/11/15 11:55:54;;;;;;;1.83;1.30;;;;;;;23.36;40.48;101050.84;6124527;28;20239;-73
2023/11/15 11:59:17;;;;;;;1.10;1.00;;;;;;;24.55;37.02;101050.13;6135562;28;20232;-73
2023/11/15 12:02:38;;;;;;;2.25;1.52;;;;;;;20.01;44.28;101066.56;6130943;28;20231;-75
2023/11/15 12:06:07;;;;;;;1.05;1.00;;;;;;;18.08;48.39;101060.31;6127488;28;20260;-72
2023/11/15 12:09:29;;;;;;;1.48;1.13;;;;;;;16.23;56.23;101063.44;6129516;28;20226;-73
2023/11/15 12:12:55;;;;;;;1.02;0.82;;;;;;;15.25;58.26;101074.91;6123488;28;20227;-71
2023/11/15 12:16:20;;;;;;;0.82;0.75;;;;;;;15.09;60.54;101067.53;6130217;28;20235;-73
2023/11/15 12:19:42;;;;;;;0.95;0.60;;;;;;;13.92;60.06;101077.00;6130477;28;20231;-70
2023/11/15 12:23:06;;;;;;;0.77;0.70;;;;;;;13.81;65.32;101069.94;6127195;28;20231;-70
2023/11/15 12:26:27;;;;;;;1.42;0.98;;;;;;;11.75;79.30;101080.72;6126256;28;20239;-70
2023/11/15 12:29:52;;;;;;;1.47;1.07;;;;;;;11.76;81.72;101087.84;6117004;28;20681;-71
2023/11/15 12:33:14;;;;;;;0.60;0.60;;;;;;;11.42;86.26;101083.69;6122589;28;20554;-72
2023/11/15 12:36:36;;;;;;;0.87;0.57;;;;;;;11.55;88.46;101091.56;6123373;28;20231;-74
2023/11/15 12:39:56;;;;;;;0.70;0.43;;;;;;;11.98;86.83;101087.59;6134638;28;20246;-73
2023/11/15 12:43:19;;;;;;;0.60;0.60;;;;;;;11.87;87.89;101092.22;6128848;28;20493;-75
2023/11/15 12:46:40;;;;;;;0.43;0.43;;;;;;;11.92;88.05;101081.88;6126222;28;20240;-72
2023/11/15 12:50:04;;;;;;;0.57;0.50;;;;;;;11.89;90.80;101085.72;6134575;28;20317;-73
2023/11/15 12:53:29;;;;;;;1.60;0.90;;;;;;;11.62;94.81;101077.38;6122087;28;20239;-75
2023/11/15 12:57:03;;;;;;;0.90;0.90;;;;;;;11.64;96.21;101077.25;6129567;28;20250;-74
2023/11/15 13:00:28;;;;;;;1.07;0.97;;;;;;;11.70;95.02;101077.56;6131934;28;20263;-72
2023/11/15 13:03:55;;;;;;;1.17;0.87;;;;;;;12.25;93.61;101078.78;6131595;28;20243;-71
2023/11/15 13:07:18;;;;;;;2.27;1.10;;;;;;;12.22;90.24;101081.78;6129708;28;20238;-72
2023/11/15 13:10:39;;;;;;;1.07;0.97;;;;;;;13.03;86.65;101073.13;6128317;28;20254;-73
2023/11/15 13:14:04;;;;;;;1.57;0.90;;;;;;;13.39;81.08;101071.47;6128683;28;20238;-71
2023/11/15 13:17:26;;;;;;;1.13;1.03;;;;;;;13.44;77.00;101069.16;6132628;28;20250;-71
2023/11/15 13:20:47;;;;;;;0.93;0.87;;;;;;;14.15;74.55;101060.13;6071840;28;20271;-76
2023/11/15 13:24:10;;;;;;;4.20;1.23;;;;;;;13.60;74.12;101063.94;6117308;28;20250;-74
2023/11/15 13:27:31;;;;;;;1.50;0.90;;;;;;;12.69;82.49;101066.50;6134065;28;20546;-73
2023/11/15 13:30:52;;;;;;;1.47;0.87;;;;;;;11.69;88.75;101065.06;6127197;28;20231;-71
2023/11/15 13:34:14;;;;;;;3.03;1.50;;;;;;;11.43;92.92;101074.59;6130309;28;20242;-73
2023/11/15 13:37:35;;;;;;;2.03;1.27;;;;;;;11.33;95.95;101073.72;6135830;28;20263;-73
2023/11/15 13:40:57;;;;;;;1.87;1.40;;;;;;;11.71;96.63;101071.19;6128816;28;20226;-74
2023/11/15 13:44:18;;;;;;;2.00;1.07;;;;;;;11.89;97.65;101076.78;6133800;28;20247;-73
2023/11/15 13:47:39;;;;;;;0.73;0.70;;;;;;;11.85;97.30;101078.88;6135135;28;20239;-71
2023/11/15 13:51:00;;;;;;;2.03;0.80;;;;;;;10.99;100.00;101088.47;6128256;28;20546;-69
2023/11/15 13:54:22;;;;;;;1.47;1.20;;;;;;;11.02;100.00;101090.91;6138545;28;20236;-71
2023/11/15 13:57:44;;;;;;;4.33;1.13;;;;;;;10.87;100.00;101092.22;6139361;28;20227;-72
2023/11/15 14:01:05;;;;;;;1.10;0.80;;;;;;;10.65;100.00;101092.38;6135875;28;20227;-70
2023/11/15 14:04:26;;;;;;;2.50;1.33;;;;;;;10.85;100.00;101089.66;6130116;28;20231;-72
2023/11/15 14:07:58;;;;;;;2.93;0.97;;;;;;;10.65;100.00;101104.03;6136569;28;20658;-72
2023/11/15 14:11:19;;;;;;;1.27;1.10;;;;;;;10.89;100.00;101099.19;6129389;28;20267;-71
2023/11/15 14:14:42;;;;;;;1.50;1.40;;;;;;;10.58;100.00;101105.50;6133304;28;20231;-71
2023/11/15 14:18:04;;;;;;;3.93;1.63;;;;;;;10.57;100.00;101092.19;6138633;28;20254;-72
2023/11/15 14:21:25;;;;;;;4.13;0.80;;;;;;;10.84;100.00;101095.19;6131966;28;20253;-72
2023/11/15 14:24:47;;;;;;;2.33;1.10;;;;;;;10.89;100.00;101093.81;6128443;28;20721;-73
2023/11/15 14:28:07;;;;;;;2.27;1.17;;;;;;;10.66;100.00;101097.63;6134471;28;20243;-76
2023/11/15 14:31:36;;;;;;;1.33;1.20;;;;;;;10.32;100.00;101096.97;6130115;28;20243;-72
2023/11/15 14:34:57;;;;;;;2.13;1.07;;;;;;;10.21;100.00;101090.75;6123123;28;20246;-73
2023/11/15 14:38:17;;;;;;;4.47;1.00;;;;;;;10.29;100.00;101089.13;6129792;28;20231;-71
2023/11/15 14:41:41;;;;;;;1.83;1.03;;;;;;;10.37;100.00;101086.63;6137253;28;20634;-74
2023/11/15 14:45:02;;;;;;;1.30;1.20;;;;;;;10.50;100.00;101090.97;6126565;28;20239;-74
2023/11/15 14:48:26;;;;;;;1.63;0.97;;;;;;;10.59;100.00;101092.91;6131541;28;20232;-75
2023/11/15 14:51:58;;;;;;;1.10;1.00;;;;;;;10.54;100.00;101089.72;6128516;28;20318;-71
2023/11/15 14:55:26;;;;;;;1.10;1.00;;;;;;;10.43;100.00;101088.81;6128898;28;20239;-72
2023/11/15 14:58:48;;;;;;;3.80;1.63;;;;;;;10.38;100.00;101091.06;6131271;28;20421;-76
2023/11/15 15:02:10;;;;;;;2.07;1.53;;;;;;;10.39;100.00;101099.97;6122621;28;20243;-73
2023/11/15 15:05:32;;;;;;;2.57;1.03;;;;;;;10.52;100.00;101092.56;6136735;28;20235;-76
2023/11/15 15:08:53;;;;;;;1.47;0.93;;;;;;;10.44;100.00;101089.66;6134992;28;20922;-73
2023/11/15 15:12:14;;;;;;;1.93;0.90;;;;;;;10.50;100.00;101097.22;6132804;28;20235;-74
2023/11/15 15:15:36;;;;;;;4.30;1.93;;;;;;;10.28;100.00;101090.09;6127299;28;20255;-73
2023/11/15 15:18:57;;;;;;;1.00;1.00;;;;;;;10.27;100.00;101090.22;6123118;28;20235;-72
2023/11/15 15:22:19;;;;;;;1.67;0.80;;;;;;;10.02;100.00;101083.31;6137716;28;20239;-73
2023/11/15 15:25:40;;;;;;;4.10;0.90;;;;;;;10.07;100.00;101085.63;6130234;28;21170;-75
2023/11/15 15:29:03;;;;;;;1.87;1.10;;;;;;;10.06;100.00;101082.06;6134233;28;20231;-71
2023/11/15 15:32:26;;;;;;;2.60;1.20;;;;;;;10.17;100.00;101089.28;6131507;28;20240;-74
2023/11/15 15:35:48;;;;;;;0.60;0.60;;;;;;;10.00;100.00;101087.13;6129870;28;20238;-73
2023/11/15 15:39:12;;;;;;;0.73;0.73;;;;;;;9.80;100.00;101094.16;6133514;28;20235;-75
2023/11/15 15:42:33;;;;;;;1.60;1.17;;;;;;;9.81;100.00;101098.56;6128434;28;20502;-71